world map with ZOS marked

ZOS - Airport

This information may not be accurate or current and is not valid for navigation or flight planning. No warranty of fitness for any purpose is made or implied.

flag of Los Lagosflag of Chile

Donate via PayPal

Additional information is available on the NEW Great Circle Mapper

Location
City:  Osorno, Los Lagos, Chile
Name:Caņal Bajo-Carlos Hott Siebert Airport
ICAO / IATA:SCJO / ZOS

Details
Type:Airport (Aerodrome, Airfield)
Use:Public/Civil
Latitude:40°36'41"S (-40.611388)
Longitude:73°03'38"W (-73.060555)
Elevation:187 ft (57 m)
Runways:1
Longest:5577 × 148 ft (1700 × 45 m)

Time
Timezone:UTC+30:08 (DST+33:08)
Local Time:

Weather
METAR:SCJO  181300Z VRB01KT 9999 FEW050 10/06 Q1021
TAF:SCJO  (expired)

Related Locations
Nearby:
Farthest:RLK: 12391 mi / 19941 km
Bayannur [Bayannur Tianjitai Airport], 15, CN

Find:

   beyond  
but within

Other Information
Maps:
Sources:

  


 


Great Circle Mapper   Great Circle Mapper
Great Circle Mapper FAQ   Great Circle Mapper FAQ
  Karl's Home Page
KLSē   KLSē Home
   GC on Facebook
Airlines of the World   Airlines of the World
Donate via PayPal


Copyright © 2004-2018, Karl L. Swartz. All rights reserved.
All trademarks mentioned herein belong to their respective owners.

Please see credits for attribution and copyright information.

Karl Swartz <karl@kls2.com>
  Powered by FreeBSD
Valid HTML 4.01!
Labeled with ICRA
hCard Microformat
Geo Microformat